createdAt,value
2023-05-05T04:17:50.400Z,100.00
2023-05-05T04:21:01.648Z,100.00
2023-05-05T04:24:11.364Z,100.00
2023-05-05T04:27:20.903Z,100.00
2023-05-05T04:30:29.385Z,100.00
2023-05-05T04:33:37.461Z,100.00
2023-05-05T04:36:45.571Z,100.00
2023-05-05T04:39:53.792Z,100.00
2023-05-05T04:42:59.838Z,100.00
2023-05-05T04:46:09.181Z,100.00
2023-05-05T04:49:14.340Z,100.00
2023-05-05T04:52:19.465Z,100.00
2023-05-05T04:55:23.525Z,100.00
2023-05-05T04:58:28.944Z,100.00
2023-05-05T05:01:33.041Z,100.00
2023-05-05T05:04:39.286Z,100.00
2023-05-05T05:07:43.316Z,100.00
2023-05-05T05:10:49.029Z,100.00
2023-05-05T05:13:53.432Z,100.00
2023-05-05T05:16:58.347Z,100.00
2023-05-05T05:20:06.047Z,100.00
2023-05-05T05:23:16.481Z,100.00
2023-05-05T05:26:22.896Z,100.00
2023-05-05T05:29:27.479Z,100.00
2023-05-05T05:32:32.904Z,100.00
2023-05-05T05:35:41.094Z,99.69
2023-05-05T05:38:49.335Z,95.61
2023-05-05T05:41:56.656Z,89.99
2023-05-05T05:45:04.658Z,90.12
2023-05-05T05:48:10.852Z,87.35
2023-05-05T05:51:18.489Z,84.07
2023-05-05T05:54:26.728Z,80.60
2023-05-05T05:57:33.707Z,80.32
2023-05-05T06:00:41.905Z,78.28
2023-05-05T06:03:51.227Z,78.28
2023-05-05T06:06:58.140Z,77.43
2023-05-05T06:10:25.798Z,71.99
2023-05-05T06:13:30.762Z,69.31
2023-05-05T06:16:35.191Z,69.70
2023-05-05T06:19:41.111Z,63.37
2023-05-05T06:22:48.874Z,57.07
2023-05-05T06:25:56.158Z,51.21
2023-05-05T06:29:00.594Z,51.74
2023-05-05T06:32:08.634Z,55.47
2023-05-05T06:35:16.375Z,56.87
2023-05-05T06:38:22.450Z,53.70
2023-05-05T06:41:31.009Z,53.21
2023-05-05T06:44:39.262Z,53.05
2023-05-05T06:47:47.556Z,55.38
2023-05-05T06:50:54.573Z,53.66
2023-05-05T06:54:00.698Z,52.46
2023-05-05T06:57:05.569Z,51.96
2023-05-05T07:00:15.600Z,52.93
2023-05-05T07:03:21.750Z,51.82
2023-05-05T07:06:27.340Z,49.66
2023-05-05T07:09:33.316Z,48.83
2023-05-05T07:12:39.611Z,48.93
2023-05-05T07:15:47.135Z,48.33
2023-05-05T07:18:53.873Z,47.81
2023-05-05T07:21:58.439Z,48.41
2023-05-05T07:25:05.408Z,47.29
2023-05-05T07:28:11.201Z,47.68
2023-05-05T07:31:14.988Z,49.18
2023-05-05T07:34:18.757Z,48.40
2023-05-05T07:37:23.552Z,50.22
2023-05-05T07:40:28.952Z,49.58
2023-05-05T07:43:34.161Z,51.21
2023-05-05T07:46:39.135Z,48.82
2023-05-05T07:49:45.647Z,47.85
2023-05-05T07:53:02.449Z,48.64
2023-05-05T07:56:19.346Z,44.30
2023-05-05T07:59:24.520Z,44.98
2023-05-05T08:02:30.802Z,45.40
2023-05-05T08:05:38.742Z,44.24
2023-05-05T08:08:43.988Z,42.72
2023-05-05T08:11:49.853Z,42.89
2023-05-05T08:14:54.665Z,40.44
2023-05-05T08:17:59.559Z,42.99
2023-05-05T08:21:08.084Z,42.43
2023-05-05T08:24:16.420Z,41.14
2023-05-05T08:27:21.733Z,38.93
2023-05-05T08:30:26.952Z,38.46
2023-05-05T08:33:33.527Z,39.36
2023-05-05T08:36:38.891Z,39.03
2023-05-05T08:39:44.040Z,38.26
2023-05-05T08:42:51.250Z,36.72
2023-05-05T08:45:58.151Z,39.52
2023-05-05T08:49:06.423Z,37.90
2023-05-05T08:52:14.631Z,37.64
2023-05-05T08:55:31.603Z,36.76
2023-05-05T08:58:38.587Z,36.97
2023-05-05T09:01:45.271Z,37.56
2023-05-05T09:04:50.052Z,35.75
2023-05-05T09:07:54.505Z,34.92
2023-05-05T09:10:58.583Z,33.31
2023-05-05T09:14:03.571Z,33.85
2023-05-05T09:17:24.568Z,32.10
2023-05-05T09:20:37.867Z,33.32
2023-05-05T09:24:13.158Z,32.41
2023-05-05T09:27:24.778Z,32.35
2023-05-05T09:30:28.922Z,31.18
2023-05-05T09:33:33.281Z,32.71
2023-05-05T09:36:45.428Z,32.61
2023-05-05T09:39:56.859Z,31.27
2023-05-05T09:43:04.201Z,30.34
2023-05-05T09:46:12.222Z,30.34
2023-05-05T09:49:19.132Z,30.26
2023-05-05T09:52:25.424Z,30.34
2023-05-05T09:55:30.920Z,28.10
2023-05-05T09:58:34.086Z,29.21
2023-05-05T10:01:38.607Z,26.87
2023-05-05T10:04:45.429Z,26.54
2023-05-05T10:07:52.261Z,29.60
2023-05-05T10:11:01.926Z,30.27
2023-05-05T10:14:08.590Z,29.52
2023-05-05T10:17:16.135Z,30.94
2023-05-05T10:20:23.491Z,29.42
2023-05-05T10:23:40.557Z,29.18
2023-05-05T10:26:49.146Z,28.23
2023-05-05T10:30:03.929Z,27.78
2023-05-05T10:36:33.277Z,23.38
2023-05-05T10:39:41.599Z,21.19
2023-05-05T10:42:49.226Z,22.39
2023-05-05T10:45:56.640Z,24.22
2023-05-05T10:49:33.252Z,25.58
2023-05-05T10:53:14.193Z,26.96
2023-05-05T10:56:27.050Z,29.93
2023-05-05T10:59:39.529Z,30.75
2023-05-05T11:02:45.285Z,30.15
2023-05-05T11:06:05.959Z,31.12
2023-05-05T11:09:29.233Z,28.43
2023-05-05T11:12:58.057Z,26.81
2023-05-05T11:16:05.673Z,27.37
2023-05-05T11:19:43.968Z,27.90
2023-05-05T11:23:09.070Z,28.32
2023-05-05T11:26:15.204Z,29.25
2023-05-05T11:29:19.306Z,29.92
2023-05-05T11:32:22.553Z,31.12
2023-05-05T11:36:05.997Z,30.76
2023-05-05T11:39:30.909Z,30.97
2023-05-05T11:42:36.055Z,29.84
2023-05-05T11:45:39.634Z,27.60
2023-05-05T11:48:47.878Z,29.29
2023-05-05T11:52:05.090Z,30.71
2023-05-05T11:55:10.730Z,31.61
2023-05-05T11:58:21.786Z,30.51
2023-05-05T12:01:27.347Z,30.97
2023-05-05T12:04:34.742Z,30.55
2023-05-05T12:07:39.273Z,30.05
2023-05-05T12:10:43.289Z,30.38
2023-05-05T12:13:47.974Z,28.95
2023-05-05T12:16:56.126Z,28.37
2023-05-05T12:20:00.620Z,29.02
2023-05-05T12:23:06.445Z,31.40
2023-05-05T12:26:30.484Z,30.38
2023-05-05T12:29:37.904Z,30.93
2023-05-05T12:32:43.478Z,30.86
2023-05-05T12:35:50.423Z,31.92
2023-05-05T12:38:54.042Z,32.33
2023-05-05T12:42:07.071Z,32.52
2023-05-05T12:45:18.097Z,33.77
2023-05-05T12:48:24.788Z,32.86
2023-05-05T12:51:34.680Z,32.97
2023-05-05T12:55:03.251Z,32.64
2023-05-05T12:58:10.627Z,32.95
2023-05-05T13:01:17.932Z,32.69
2023-05-05T13:04:24.849Z,33.84
2023-05-05T13:07:34.587Z,34.28
2023-05-05T13:10:56.985Z,34.69
2023-05-05T13:14:04.338Z,33.85
2023-05-05T13:17:08.855Z,38.53
2023-05-05T13:20:16.629Z,33.81
2023-05-05T13:23:25.369Z,33.33
2023-05-05T13:26:34.019Z,34.96
2023-05-05T13:29:42.950Z,36.03
2023-05-05T13:32:49.398Z,34.87
2023-05-05T13:35:55.674Z,34.88
2023-05-05T13:39:02.587Z,35.62
2023-05-05T13:42:10.264Z,34.14
2023-05-05T13:45:21.430Z,33.54
2023-05-05T13:48:29.694Z,33.22
2023-05-05T13:51:37.628Z,32.43
2023-05-05T13:54:46.561Z,34.34
2023-05-05T13:57:53.357Z,35.80
2023-05-05T14:01:00.259Z,33.94
2023-05-05T14:04:06.570Z,33.68
2023-05-05T14:07:13.037Z,34.08
2023-05-05T14:10:22.071Z,35.15
2023-05-05T14:13:28.246Z,34.69
2023-05-05T14:16:36.401Z,34.60
2023-05-05T14:19:45.002Z,34.26
2023-05-05T14:22:51.803Z,33.05
2023-05-05T14:25:59.304Z,33.63
2023-05-05T14:29:05.854Z,34.65
2023-05-05T14:32:14.125Z,33.92
2023-05-05T14:35:22.112Z,33.59
2023-05-05T14:38:26.619Z,32.61
2023-05-05T14:41:35.665Z,33.32
2023-05-05T14:44:42.107Z,33.16
2023-05-05T14:47:49.240Z,33.10
2023-05-05T14:50:55.057Z,33.21
2023-05-05T14:54:02.509Z,33.11
2023-05-05T14:57:09.668Z,32.78
2023-05-05T15:00:18.377Z,33.06
2023-05-05T15:03:25.755Z,32.59
2023-05-05T15:06:36.917Z,32.64
